PWSweather.com
Personal Weather Stations
Station Observations
KVAGLENALL
West Henrico, Glen Allen, VA 23060-6503

West HenricoGlen Allen, VA 23060-6503

Lat: 37.6554, Lon: -77.5693

Elevation: 273

Station Type: Davis Vantage Pro II

www.glenallenweather.com

High Low Average
Temperature 88.8°F31.6°F 69.6°F20.9°F 79.1°F26.2°F
Dew Point 71.3°F21.8°F 66.2°F19.0°F 69.2°F20.7°F
Winds 6.1 mph NE9.8 mph NE 0.1 mph 0.2 mph 0.3 mph 0.5 mph
Wind Gusts 7.1 mph11.4 mph 0.1 mph0.2 mph 1.4 mph2.3 mph
Humidity 95% 52% 74%
Pressure 30.18 in1022.00 in 29.98 in1015.20 in -
Precipitation 0.00 in0.00 in - -
Hour Temp Dew Point Humidity Winds Wind Gusts Pressure Precip Precip Rate Daily Precip Total
12:00 AM 74.4°F23.6°C 70.9°F21.6°C 89% 0.1 mph S0.2 kmh S 0.1 mph0.2 kmh 29.98 in1015.2 mb 0.00 in0.0 mm 0.00 in0.0 mm 0.00 in0.0 mm
12:15 AM 74.0°F23.3°C 70.5°F21.4°C 89% 0.1 mph S0.2 kmh S 0.1 mph0.2 kmh 29.98 in1015.2 mb 0.00 in0.0 mm 0.00 in0.0 mm 0.00 in0.0 mm
12:30 AM 73.6°F23.1°C 70.5°F21.4°C 90% 0.1 mph S0.2 kmh S 0.1 mph0.2 kmh 29.98 in1015.2 mb 0.00 in0.0 mm 0.00 in0.0 mm 0.00 in0.0 mm
12:45 AM 73.6°F23.1°C 70.8°F21.6°C 91% 0.1 mph S0.2 kmh S 0.1 mph0.2 kmh 29.99 in1015.6 mb 0.00 in0.0 mm 0.00 in0.0 mm 0.00 in0.0 mm
01:00 AM 73.8°F23.2°C 70.7°F21.5°C 90% 0.1 mph S0.2 kmh S 0.1 mph0.2 kmh 29.98 in1015.2 mb 0.00 in0.0 mm 0.00 in0.0 mm 0.00 in0.0 mm
01:15 AM 73.6°F23.1°C 70.8°F21.6°C 91% 0.1 mph S0.2 kmh S 0.1 mph0.2 kmh 29.99 in1015.6 mb 0.00 in0.0 mm 0.00 in0.0 mm 0.00 in0.0 mm
01:30 AM 73.3°F22.9°C 70.8°F21.6°C 92% 0.1 mph N0.2 kmh N 2.1 mph3.4 kmh 29.99 in1015.6 mb 0.00 in0.0 mm 0.00 in0.0 mm 0.00 in0.0 mm
01:45 AM 73.8°F23.2°C 71.0°F21.7°C 91% 0.1 mph WSW0.2 kmh WSW 2.1 mph3.4 kmh 29.99 in1015.6 mb 0.00 in0.0 mm 0.00 in0.0 mm 0.00 in0.0 mm
02:00 AM 73.3°F22.9°C 70.5°F21.4°C 91% 0.1 mph NNE0.2 kmh NNE 0.1 mph0.2 kmh 29.99 in1015.6 mb 0.00 in0.0 mm 0.00 in0.0 mm 0.00 in0.0 mm
02:15 AM 72.6°F22.6°C 70.1°F21.2°C 92% 0.1 mph NNE0.2 kmh NNE 0.1 mph0.2 kmh 29.99 in1015.6 mb 0.00 in0.0 mm 0.00 in0.0 mm 0.00 in0.0 mm
02:30 AM 72.4°F22.4°C 69.9°F21.1°C 92% 0.1 mph NNE0.2 kmh NNE 0.1 mph0.2 kmh 29.99 in1015.6 mb 0.00 in0.0 mm 0.00 in0.0 mm 0.00 in0.0 mm
02:45 AM 72.0°F22.2°C 69.5°F20.8°C 92% 0.1 mph NNE0.2 kmh NNE 0.1 mph0.2 kmh 29.99 in1015.6 mb 0.00 in0.0 mm 0.00 in0.0 mm 0.00 in0.0 mm
03:00 AM 71.8°F22.1°C 69.6°F20.9°C 93% 0.1 mph NNE0.2 kmh NNE 0.1 mph0.2 kmh 29.99 in1015.6 mb 0.00 in0.0 mm 0.00 in0.0 mm 0.00 in0.0 mm
03:15 AM 71.5°F21.9°C 69.6°F20.9°C 94% 0.1 mph NNE0.2 kmh NNE 0.1 mph0.2 kmh 29.99 in1015.6 mb 0.00 in0.0 mm 0.00 in0.0 mm 0.00 in0.0 mm
03:30 AM 71.3°F21.8°C 69.1°F20.6°C 93% 0.1 mph NNE0.2 kmh NNE 0.1 mph0.2 kmh 29.99 in1015.6 mb 0.00 in0.0 mm 0.00 in0.0 mm 0.00 in0.0 mm
03:45 AM 71.3°F21.8°C 69.4°F20.8°C 94% 0.1 mph NNE0.2 kmh NNE 0.1 mph0.2 kmh 30.00 in1015.9 mb 0.00 in0.0 mm 0.00 in0.0 mm 0.00 in0.0 mm
04:00 AM 70.8°F21.6°C 68.9°F20.5°C 94% 0.1 mph NNE0.2 kmh NNE 0.1 mph0.2 kmh 30.00 in1015.9 mb 0.00 in0.0 mm 0.00 in0.0 mm 0.00 in0.0 mm
04:15 AM 71.2°F21.8°C 69.7°F20.9°C 95% 0.1 mph NNE0.2 kmh NNE 0.1 mph0.2 kmh 30.01 in1016.3 mb 0.00 in0.0 mm 0.00 in0.0 mm 0.00 in0.0 mm
04:30 AM 71.1°F21.7°C 69.6°F20.9°C 95% 0.1 mph N0.2 kmh N 0.1 mph0.2 kmh 30.01 in1016.3 mb 0.00 in0.0 mm 0.00 in0.0 mm 0.00 in0.0 mm
04:45 AM 70.9°F21.6°C 69.4°F20.8°C 95% 0.1 mph N0.2 kmh N 0.1 mph0.2 kmh 30.02 in1016.6 mb 0.00 in0.0 mm 0.00 in0.0 mm 0.00 in0.0 mm
05:00 AM 70.6°F21.4°C 68.7°F20.4°C 94% 0.1 mph N0.2 kmh N 0.1 mph0.2 kmh 30.02 in1016.6 mb 0.00 in0.0 mm 0.00 in0.0 mm 0.00 in0.0 mm
05:15 AM 70.4°F21.3°C 68.6°F20.3°C 94% 1.0 mph N1.6 kmh N 1.1 mph1.8 kmh 30.03 in1016.9 mb 0.00 in0.0 mm 0.00 in0.0 mm 0.00 in0.0 mm
05:30 AM 70.3°F21.3°C 68.5°F20.3°C 94% 0.1 mph N0.2 kmh N 0.1 mph0.2 kmh 30.03 in1016.9 mb 0.00 in0.0 mm 0.00 in0.0 mm 0.00 in0.0 mm
05:45 AM 70.1°F21.2°C 67.9°F19.9°C 93% 0.1 mph NNW0.2 kmh NNW 0.1 mph0.2 kmh 30.03 in1016.9 mb 0.00 in0.0 mm 0.00 in0.0 mm 0.00 in0.0 mm
06:00 AM 70.0°F21.1°C 67.5°F19.7°C 92% 0.1 mph NNE0.2 kmh NNE 0.1 mph0.2 kmh 30.05 in1017.6 mb 0.00 in0.0 mm 0.00 in0.0 mm 0.00 in0.0 mm
06:15 AM 69.9°F21.1°C 67.4°F19.7°C 92% 0.1 mph N0.2 kmh N 1.1 mph1.8 kmh 30.05 in1017.6 mb 0.00 in0.0 mm 0.00 in0.0 mm 0.00 in0.0 mm
06:30 AM 69.7°F20.9°C 67.2°F19.6°C 92% 0.1 mph NE0.2 kmh NE 1.1 mph1.8 kmh 30.06 in1017.9 mb 0.00 in0.0 mm 0.00 in0.0 mm 0.00 in0.0 mm
06:45 AM 69.6°F20.9°C 67.4°F19.7°C 93% 0.1 mph N0.2 kmh N 0.1 mph0.2 kmh 30.06 in1017.9 mb 0.00 in0.0 mm 0.00 in0.0 mm 0.00 in0.0 mm
07:00 AM 69.6°F20.9°C 67.1°F19.5°C 92% 0.1 mph NNE0.2 kmh NNE 1.1 mph1.8 kmh 30.06 in1017.9 mb 0.00 in0.0 mm 0.00 in0.0 mm 0.00 in0.0 mm
07:15 AM 70.2°F21.2°C 67.1°F19.5°C 90% 0.1 mph NW0.2 kmh NW 0.1 mph0.2 kmh 30.06 in1017.9 mb 0.00 in0.0 mm 0.00 in0.0 mm 0.00 in0.0 mm
07:30 AM 70.6°F21.4°C 67.2°F19.6°C 89% 0.1 mph W0.2 kmh W 2.1 mph3.4 kmh 30.07 in1018.3 mb 0.00 in0.0 mm 0.00 in0.0 mm 0.00 in0.0 mm
07:45 AM 71.0°F21.7°C 67.2°F19.6°C 88% 0.1 mph S0.2 kmh S 0.1 mph0.2 kmh 30.08 in1018.6 mb 0.00 in0.0 mm 0.00 in0.0 mm 0.00 in0.0 mm
08:00 AM 71.9°F22.2°C 67.1°F19.5°C 85% 2.0 mph NE3.2 kmh NE 2.1 mph3.4 kmh 30.08 in1018.6 mb 0.00 in0.0 mm 0.00 in0.0 mm 0.00 in0.0 mm
08:15 AM 73.5°F23.1°C 66.2°F19.0°C 78% 0.1 mph WSW0.2 kmh WSW 1.1 mph1.8 kmh 30.09 in1019.0 mb 0.00 in0.0 mm 0.00 in0.0 mm 0.00 in0.0 mm
08:30 AM 74.6°F23.7°C 66.5°F19.2°C 76% 0.1 mph ESE0.2 kmh ESE 4.1 mph6.6 kmh 30.10 in1019.3 mb 0.00 in0.0 mm 0.00 in0.0 mm 0.00 in0.0 mm
08:45 AM 75.6°F24.2°C 66.3°F19.1°C 73% 2.0 mph NE3.2 kmh NE 5.1 mph8.2 kmh 30.11 in1019.6 mb 0.00 in0.0 mm 0.00 in0.0 mm 0.00 in0.0 mm
09:00 AM 76.2°F24.6°C 66.5°F19.2°C 72% 1.0 mph N1.6 kmh N 1.1 mph1.8 kmh 30.11 in1019.6 mb 0.00 in0.0 mm 0.00 in0.0 mm 0.00 in0.0 mm
09:15 AM 77.7°F25.4°C 67.1°F19.5°C 70% 0.1 mph ESE0.2 kmh ESE 2.1 mph3.4 kmh 30.11 in1019.6 mb 0.00 in0.0 mm 0.00 in0.0 mm 0.00 in0.0 mm
09:30 AM 78.3°F25.7°C 66.9°F19.4°C 68% 0.1 mph N0.2 kmh N 2.1 mph3.4 kmh 30.11 in1019.6 mb 0.00 in0.0 mm 0.00 in0.0 mm 0.00 in0.0 mm
09:45 AM 78.9°F26.1°C 66.6°F19.2°C 66% 1.0 mph NNW1.6 kmh NNW 6.1 mph9.8 kmh 30.12 in1020.0 mb 0.00 in0.0 mm 0.00 in0.0 mm 0.00 in0.0 mm
10:00 AM 79.1°F26.2°C 67.2°F19.6°C 67% 6.1 mph NE9.8 kmh NE 6.1 mph9.8 kmh 30.12 in1020.0 mb 0.00 in0.0 mm 0.00 in0.0 mm 0.00 in0.0 mm
10:15 AM 80.3°F26.8°C 67.9°F19.9°C 66% 0.1 mph ESE0.2 kmh ESE 1.1 mph1.8 kmh 30.12 in1020.0 mb 0.00 in0.0 mm 0.00 in0.0 mm 0.00 in0.0 mm
10:30 AM 81.2°F27.3°C 68.8°F20.4°C 66% 0.1 mph NW0.2 kmh NW 1.1 mph1.8 kmh 30.12 in1020.0 mb 0.00 in0.0 mm 0.00 in0.0 mm 0.00 in0.0 mm
10:45 AM 82.0°F27.8°C 69.1°F20.6°C 65% 0.1 mph N0.2 kmh N 4.1 mph6.6 kmh 30.12 in1020.0 mb 0.00 in0.0 mm 0.00 in0.0 mm 0.00 in0.0 mm
11:00 AM 82.2°F27.9°C 67.9°F19.9°C 62% 1.0 mph NW1.6 kmh NW 3.1 mph5.0 kmh 30.12 in1020.0 mb 0.00 in0.0 mm 0.00 in0.0 mm 0.00 in0.0 mm
11:15 AM 83.0°F28.3°C 68.2°F20.1°C 61% 0.1 mph E0.2 kmh E 1.1 mph1.8 kmh 30.12 in1020.0 mb 0.00 in0.0 mm 0.00 in0.0 mm 0.00 in0.0 mm
11:30 AM 83.3°F28.5°C 69.4°F20.8°C 63% 0.1 mph S0.2 kmh S 4.1 mph6.6 kmh 30.13 in1020.3 mb 0.00 in0.0 mm 0.00 in0.0 mm 0.00 in0.0 mm
11:45 AM 83.8°F28.8°C 68.0°F20.0°C 59% 0.1 mph NE0.2 kmh NE 4.1 mph6.6 kmh 30.13 in1020.3 mb 0.00 in0.0 mm 0.00 in0.0 mm 0.00 in0.0 mm
12:00 PM 84.1°F28.9°C 68.7°F20.4°C 60% 0.1 mph SE0.2 kmh SE 2.1 mph3.4 kmh 30.13 in1020.3 mb 0.00 in0.0 mm 0.00 in0.0 mm 0.00 in0.0 mm
12:15 PM 85.1°F29.5°C 69.7°F20.9°C 60% 0.1 mph WNW0.2 kmh WNW 3.1 mph5.0 kmh 30.13 in1020.3 mb 0.00 in0.0 mm 0.00 in0.0 mm 0.00 in0.0 mm
12:30 PM 85.9°F29.9°C 70.0°F21.1°C 59% 0.1 mph NNW0.2 kmh NNW 2.1 mph3.4 kmh 30.13 in1020.3 mb 0.00 in0.0 mm 0.00 in0.0 mm 0.00 in0.0 mm
12:45 PM 86.1°F30.1°C 70.1°F21.2°C 59% 0.1 mph SE0.2 kmh SE 1.1 mph1.8 kmh 30.13 in1020.3 mb 0.00 in0.0 mm 0.00 in0.0 mm 0.00 in0.0 mm
01:00 PM 86.8°F30.4°C 69.3°F20.7°C 56% 0.1 mph SE0.2 kmh SE 1.1 mph1.8 kmh 30.13 in1020.3 mb 0.00 in0.0 mm 0.00 in0.0 mm 0.00 in0.0 mm
01:15 PM 87.0°F30.6°C 69.5°F20.8°C 56% 0.1 mph SE0.2 kmh SE 1.1 mph1.8 kmh 30.13 in1020.3 mb 0.00 in0.0 mm 0.00 in0.0 mm 0.00 in0.0 mm
01:30 PM 87.4°F30.8°C 68.8°F20.4°C 54% 0.1 mph SSW0.2 kmh SSW 4.1 mph6.6 kmh 30.12 in1020.0 mb 0.00 in0.0 mm 0.00 in0.0 mm 0.00 in0.0 mm
01:45 PM 87.5°F30.8°C 69.4°F20.8°C 55% 0.1 mph NNE0.2 kmh NNE 2.1 mph3.4 kmh 30.12 in1020.0 mb 0.00 in0.0 mm 0.00 in0.0 mm 0.00 in0.0 mm
02:00 PM 87.9°F31.1°C 71.3°F21.8°C 58% 1.0 mph NNW1.6 kmh NNW 3.1 mph5.0 kmh 30.13 in1020.3 mb 0.00 in0.0 mm 0.00 in0.0 mm 0.00 in0.0 mm
02:15 PM 88.2°F31.2°C 70.6°F21.4°C 56% 0.1 mph SSE0.2 kmh SSE 0.1 mph0.2 kmh 30.12 in1020.0 mb 0.00 in0.0 mm 0.00 in0.0 mm 0.00 in0.0 mm
02:30 PM 88.1°F31.2°C 70.0°F21.1°C 55% 1.0 mph SSW1.6 kmh SSW 4.1 mph6.6 kmh 30.11 in1019.6 mb 0.00 in0.0 mm 0.00 in0.0 mm 0.00 in0.0 mm
02:45 PM 88.2°F31.2°C 70.0°F21.1°C 55% 1.0 mph S1.6 kmh S 3.1 mph5.0 kmh 30.11 in1019.6 mb 0.00 in0.0 mm 0.00 in0.0 mm 0.00 in0.0 mm
03:00 PM 88.1°F31.2°C 70.5°F21.4°C 56% 1.0 mph N1.6 kmh N 3.1 mph5.0 kmh 30.10 in1019.3 mb 0.00 in0.0 mm 0.00 in0.0 mm 0.00 in0.0 mm
03:15 PM 88.6°F31.4°C 71.0°F21.7°C 56% 2.0 mph SSE3.2 kmh SSE 7.1 mph11.4 kmh 30.10 in1019.3 mb 0.00 in0.0 mm 0.00 in0.0 mm 0.00 in0.0 mm
03:30 PM 87.4°F30.8°C 69.3°F20.7°C 55% 0.1 mph SSE0.2 kmh SSE 1.1 mph1.8 kmh 30.10 in1019.3 mb 0.00 in0.0 mm 0.00 in0.0 mm 0.00 in0.0 mm
03:45 PM 88.4°F31.3°C 68.6°F20.3°C 52% 0.1 mph NNW0.2 kmh NNW 2.1 mph3.4 kmh 30.10 in1019.3 mb 0.00 in0.0 mm 0.00 in0.0 mm 0.00 in0.0 mm
04:00 PM 87.7°F30.9°C 69.6°F20.9°C 55% 0.1 mph WNW0.2 kmh WNW 2.1 mph3.4 kmh 30.09 in1019.0 mb 0.00 in0.0 mm 0.00 in0.0 mm 0.00 in0.0 mm
04:15 PM 88.1°F31.2°C 70.5°F21.4°C 56% 3.0 mph SE4.8 kmh SE 4.1 mph6.6 kmh 30.09 in1019.0 mb 0.00 in0.0 mm 0.00 in0.0 mm 0.00 in0.0 mm
04:30 PM 87.8°F31.0°C 70.2°F21.2°C 56% 0.1 mph E0.2 kmh E 3.1 mph5.0 kmh 30.09 in1019.0 mb 0.00 in0.0 mm 0.00 in0.0 mm 0.00 in0.0 mm
04:45 PM 88.1°F31.2°C 71.0°F21.7°C 57% 0.1 mph S0.2 kmh S 1.1 mph1.8 kmh 30.09 in1019.0 mb 0.00 in0.0 mm 0.00 in0.0 mm 0.00 in0.0 mm
05:00 PM 88.6°F31.4°C 69.9°F21.1°C 54% 0.1 mph SSW0.2 kmh SSW 1.1 mph1.8 kmh 30.08 in1018.6 mb 0.00 in0.0 mm 0.00 in0.0 mm 0.00 in0.0 mm
05:15 PM 88.8°F31.6°C 70.1°F21.2°C 54% 0.1 mph SE0.2 kmh SE 1.1 mph1.8 kmh 30.09 in1019.0 mb 0.00 in0.0 mm 0.00 in0.0 mm 0.00 in0.0 mm
05:30 PM 88.3°F31.3°C 70.1°F21.2°C 55% 0.1 mph E0.2 kmh E 1.1 mph1.8 kmh 30.09 in1019.0 mb 0.00 in0.0 mm 0.00 in0.0 mm 0.00 in0.0 mm
05:45 PM 87.5°F30.8°C 69.9°F21.1°C 56% 0.1 mph SSE0.2 kmh SSE 3.1 mph5.0 kmh 30.09 in1019.0 mb 0.00 in0.0 mm 0.00 in0.0 mm 0.00 in0.0 mm
06:00 PM 86.6°F30.3°C 69.6°F20.9°C 57% 0.1 mph N0.2 kmh N 1.1 mph1.8 kmh 30.09 in1019.0 mb 0.00 in0.0 mm 0.00 in0.0 mm 0.00 in0.0 mm
06:15 PM 86.1°F30.1°C 70.6°F21.4°C 60% 0.1 mph E0.2 kmh E 0.1 mph0.2 kmh 30.09 in1019.0 mb 0.00 in0.0 mm 0.00 in0.0 mm 0.00 in0.0 mm
06:30 PM 85.8°F29.9°C 69.9°F21.1°C 59% 0.1 mph NNW0.2 kmh NNW 3.1 mph5.0 kmh 30.10 in1019.3 mb 0.00 in0.0 mm 0.00 in0.0 mm 0.00 in0.0 mm
06:45 PM 85.4°F29.7°C 70.5°F21.4°C 61% 0.1 mph E0.2 kmh E 0.1 mph0.2 kmh 30.10 in1019.3 mb 0.00 in0.0 mm 0.00 in0.0 mm 0.00 in0.0 mm
07:00 PM 84.7°F29.3°C 70.7°F21.5°C 63% 0.1 mph SSE0.2 kmh SSE 0.1 mph0.2 kmh 30.11 in1019.6 mb 0.00 in0.0 mm 0.00 in0.0 mm 0.00 in0.0 mm
07:15 PM 84.2°F29.0°C 70.3°F21.3°C 63% 0.1 mph SW0.2 kmh SW 0.1 mph0.2 kmh 30.11 in1019.6 mb 0.00 in0.0 mm 0.00 in0.0 mm 0.00 in0.0 mm
07:30 PM 83.6°F28.7°C 70.2°F21.2°C 64% 0.1 mph WNW0.2 kmh WNW 0.1 mph0.2 kmh 30.11 in1019.6 mb 0.00 in0.0 mm 0.00 in0.0 mm 0.00 in0.0 mm
07:45 PM 82.8°F28.2°C 69.9°F21.1°C 65% 0.1 mph SSE0.2 kmh SSE 0.1 mph0.2 kmh 30.12 in1020.0 mb 0.00 in0.0 mm 0.00 in0.0 mm 0.00 in0.0 mm
08:00 PM 82.0°F27.8°C 69.5°F20.8°C 66% 0.1 mph S0.2 kmh S 0.1 mph0.2 kmh 30.12 in1020.0 mb 0.00 in0.0 mm 0.00 in0.0 mm 0.00 in0.0 mm
08:15 PM 81.0°F27.2°C 69.9°F21.1°C 69% 0.1 mph S0.2 kmh S 0.1 mph0.2 kmh 30.12 in1020.0 mb 0.00 in0.0 mm 0.00 in0.0 mm 0.00 in0.0 mm
08:30 PM 80.3°F26.8°C 69.6°F20.9°C 70% 0.1 mph S0.2 kmh S 0.1 mph0.2 kmh 30.13 in1020.3 mb 0.00 in0.0 mm 0.00 in0.0 mm 0.00 in0.0 mm
08:45 PM 79.9°F26.6°C 70.1°F21.2°C 72% 0.1 mph S0.2 kmh S 0.1 mph0.2 kmh 30.14 in1020.7 mb 0.00 in0.0 mm 0.00 in0.0 mm 0.00 in0.0 mm
09:00 PM 79.7°F26.5°C 70.3°F21.3°C 73% 0.1 mph SE0.2 kmh SE 0.1 mph0.2 kmh 30.14 in1020.7 mb 0.00 in0.0 mm 0.00 in0.0 mm 0.00 in0.0 mm
09:15 PM 79.4°F26.3°C 70.4°F21.3°C 74% 0.1 mph S0.2 kmh S 0.1 mph0.2 kmh 30.14 in1020.7 mb 0.00 in0.0 mm 0.00 in0.0 mm 0.00 in0.0 mm
09:30 PM 79.0°F26.1°C 70.4°F21.3°C 75% 0.1 mph S0.2 kmh S 0.1 mph0.2 kmh 30.15 in1021.0 mb 0.00 in0.0 mm 0.00 in0.0 mm 0.00 in0.0 mm
09:45 PM 78.9°F26.1°C 70.7°F21.5°C 76% 0.1 mph SSE0.2 kmh SSE 2.1 mph3.4 kmh 30.16 in1021.3 mb 0.00 in0.0 mm 0.00 in0.0 mm 0.00 in0.0 mm
10:00 PM 78.6°F25.9°C 70.4°F21.3°C 76% 0.1 mph S0.2 kmh S 1.1 mph1.8 kmh 30.17 in1021.7 mb 0.00 in0.0 mm 0.00 in0.0 mm 0.00 in0.0 mm
10:15 PM 78.6°F25.9°C 69.6°F20.9°C 74% 0.1 mph SE0.2 kmh SE 0.1 mph0.2 kmh 30.17 in1021.7 mb 0.00 in0.0 mm 0.00 in0.0 mm 0.00 in0.0 mm
10:30 PM 77.9°F25.5°C 69.3°F20.7°C 75% 0.1 mph SE0.2 kmh SE 1.1 mph1.8 kmh 30.17 in1021.7 mb 0.00 in0.0 mm 0.00 in0.0 mm 0.00 in0.0 mm
10:45 PM 77.4°F25.2°C 68.9°F20.5°C 75% 0.1 mph SE0.2 kmh SE 0.1 mph0.2 kmh 30.17 in1021.7 mb 0.00 in0.0 mm 0.00 in0.0 mm 0.00 in0.0 mm
11:00 PM 77.1°F25.1°C 68.9°F20.5°C 76% 0.1 mph SE0.2 kmh SE 0.1 mph0.2 kmh 30.18 in1022.0 mb 0.00 in0.0 mm 0.00 in0.0 mm 0.00 in0.0 mm
11:15 PM 76.3°F24.6°C 68.9°F20.5°C 78% 0.1 mph SE0.2 kmh SE 0.1 mph0.2 kmh 30.18 in1022.0 mb 0.00 in0.0 mm 0.00 in0.0 mm 0.00 in0.0 mm
11:30 PM 76.3°F24.6°C 69.3°F20.7°C 79% 0.1 mph SE0.2 kmh SE 0.1 mph0.2 kmh 30.18 in1022.0 mb 0.00 in0.0 mm 0.00 in0.0 mm 0.00 in0.0 mm
11:45 PM 75.6°F24.2°C 69.0°F20.6°C 80% 0.1 mph SE0.2 kmh SE 0.1 mph0.2 kmh 30.18 in1022.0 mb 0.00 in0.0 mm 0.00 in0.0 mm 0.00 in0.0 mm